Terminal Aerodrome Forecast
Issued by NWS

Home | Current Version | Previous Version | Text Only | Print | Product List | Glossary On
Versions: 1 2 3 4 5 6 7 8 9 10 11 12 13 14 15 16 17
447
FTUS46 KLOX 181741
TAFPMD
TAF
KPMD 181741Z 1818/1918 VRB03KT P6SM BKN120
     FM182000 23015KT P6SM BKN120
     FM182300 23020G30KT P6SM BKN050 BKN100
     FM190500 22020G30KT P6SM -SHRA OVC050
     FM191200 22020G30KT 4SM +RA BR BKN015 OVC030
     FM191600 21014G25KT 3SM TSRA BR BKN005 OVC010CB=

USA.gov is the U.S. government's official web portal to all federal, state and local government web resources and services.